Terminal Aerodrome Forecast
Issued by NWS

Current Version | Previous Version | Text Only | Print | Product List | Glossary On
Versions: 1 2 3 4 5 6 7 8 9 10 11 12
000
FTUS46 KPDT 041130
TAFRDM
TAF
KRDM 041130Z 0412/0512 18006KT P6SM VCSH BKN040 OVC060
     FM041600 23010KT P6SM -RASN BKN025 OVC050
     FM042200 32010G20KT P6SM VCSH BKN040 BKN100
     FM050200 30008KT P6SM SCT050 BKN080=

USA.gov is the U.S. government's official web portal to all federal, state and local government web resources and services.